ADDS METAR Data INFO
IDs: Format: Raw Decoded Include TAF

Data at: 0317 UTC 20 Jul 2018

KFRR 200315Z AUTO 00000KT 10SM CLR 21/16 A3009 RMK AO1
KFRR 200255Z AUTO 00000KT 10SM CLR 21/17 A3009 RMK AO1
KFRR 200235Z AUTO 00000KT 10SM CLR 21/17 A3008 RMK AO1
KFRR 200215Z AUTO 00000KT 10SM CLR 21/17 A3008 RMK AO1
KFRR 200155Z AUTO 00000KT 10SM CLR 22/17 A3008 RMK AO1
KFRR 200135Z AUTO 24003KT 10SM CLR 21/17 A3007 RMK AO1
KFRR 200115Z AUTO 00000KT 10SM CLR 22/17 A3007 RMK AO1
KFRR 200055Z AUTO 00000KT 10SM CLR 22/17 A3006 RMK AO1
KFRR 200035Z AUTO 00000KT 10SM CLR 23/18 A3006 RMK AO1
KFRR 200015Z AUTO 00000KT 10SM CLR 24/17 A3006 RMK AO1
KFRR 192355Z AUTO 00000KT 10SM CLR 25/17 A3006 RMK AO1
KFRR 192335Z AUTO 00000KT 10SM CLR 26/17 A3006 RMK AO1
KFRR 192315Z AUTO 00000KT 10SM CLR 26/17 A3005 RMK AO1
KFRR 192255Z AUTO 00000KT 10SM CLR 27/16 A3005 RMK AO1
KFRR 192235Z AUTO 00000KT 10SM CLR 27/16 A3006 RMK AO1
KFRR 192215Z AUTO 00000KT 10SM CLR 28/16 A3006 RMK AO1
KFRR 192155Z AUTO 13004KT 10SM CLR 28/16 A3006 RMK AO1
KFRR 192135Z AUTO 17004KT 10SM CLR 28/15 A3006 RMK AO1
KFRR 192115Z AUTO 16005KT 10SM CLR 28/15 A3007 RMK AO1
KFRR 192055Z AUTO 00000KT 10SM CLR 28/15 A3007 RMK AO1
KFRR 192035Z AUTO 17004KT 10SM CLR 28/15 A3007 RMK AO1
KFRR 192015Z AUTO 15004KT 10SM CLR 29/15 A3008 RMK AO1
KFRR 191955Z AUTO 00000KT 10SM SCT055 28/15 A3008 RMK AO1
KFRR 191935Z AUTO 15003KT 10SM SCT055 29/16 A3008 RMK AO1
KFRR 191915Z AUTO 00000KT 10SM SCT055 27/15 A3009 RMK AO1
KFRR 191855Z AUTO 19004KT 10SM SCT055 27/16 A3009 RMK AO1
KFRR 191835Z AUTO 13003KT 10SM SCT055 27/16 A3009 RMK AO1
KFRR 191815Z AUTO 00000KT 10SM CLR 27/16 A3009 RMK AO1
KFRR 191755Z AUTO 12003KT 10SM CLR 28/16 A3009 RMK AO1
KFRR 191735Z AUTO 15004KT 10SM CLR 28/15 A3011 RMK AO1
KFRR 191715Z AUTO 06003KT 10SM CLR 26/14 A3011 RMK AO1
KFRR 191655Z AUTO 00000KT 10SM CLR 27/17 A3012 RMK AO1
KFRR 191635Z AUTO 00000KT 10SM CLR 27/16 A3012 RMK AO1
KFRR 191615Z AUTO 08003KT 10SM CLR 26/16 A3013 RMK AO1
KFRR 191555Z AUTO 00000KT 10SM CLR 26/17 A3013 RMK AO1
KFRR 191535Z AUTO 00000KT 10SM CLR 25/16 A3013 RMK AO1
KFRR 191515Z AUTO 05004KT 10SM CLR 25/17 A3013 RMK AO1
KFRR 191455Z AUTO 00000KT 10SM CLR 23/16 A3013 RMK AO1
KFRR 191435Z AUTO 04005KT 10SM CLR 23/16 A3012 RMK AO1
KFRR 191415Z AUTO 00000KT 10SM CLR 22/16 A3012 RMK AO1
KFRR 191355Z AUTO 00000KT 10SM CLR 22/16 A3013 RMK AO1
KFRR 191335Z AUTO 00000KT 10SM CLR 21/16 A3013 RMK AO1
KFRR 191315Z AUTO 00000KT 10SM CLR 20/15 A3013 RMK AO1
KFRR 191255Z AUTO 00000KT 10SM CLR 20/16 A3013 RMK AO1
KFRR 191235Z AUTO 00000KT 10SM CLR 18/15 A3012 RMK AO1
KFRR 191215Z AUTO 00000KT 10SM CLR 18/15 A3012 RMK AO1
KFRR 191155Z AUTO 00000KT 10SM CLR 17/15 A3011 RMK AO1
KFRR 191135Z AUTO 00000KT 10SM SCT070 16/15 A3011 RMK AO1
KFRR 191115Z AUTO 00000KT 10SM BKN070 16/15 A3010 RMK AO1
KFRR 191055Z AUTO 00000KT 10SM OVC070 16/15 A3010 RMK AO1
KFRR 191035Z AUTO 00000KT 10SM OVC070 15/14 A3008 RMK AO1
KFRR 191015Z AUTO 00000KT 10SM BKN070 15/14 A3008 RMK AO1
KFRR 190955Z AUTO 00000KT 10SM SCT070 15/14 A3007 RMK AO1
KFRR 190935Z AUTO 00000KT 10SM BKN070 16/14 A3007 RMK AO1
KFRR 190915Z AUTO 00000KT 10SM SCT070 16/14 A3007 RMK AO1
KFRR 190855Z AUTO 20003KT 10SM OVC070 16/15 A3007 RMK AO1
KFRR 190835Z AUTO 19003KT 10SM OVC070 16/15 A3007 RMK AO1
KFRR 190815Z AUTO 18003KT 10SM OVC070 16/15 A3007 RMK AO1
KFRR 190755Z AUTO 19004KT 10SM BKN070 16/15 A3007 RMK AO1
KFRR 190735Z AUTO 19004KT 10SM SCT070 17/15 A3007 RMK AO1
KFRR 190715Z AUTO 19004KT 10SM BKN070 17/15 A3006 RMK AO1
KFRR 190655Z AUTO 18003KT 10SM BKN070 17/15 A3006 RMK AO1
KFRR 190635Z AUTO 19005KT 10SM OVC070 17/15 A3006 RMK AO1
KFRR 190615Z AUTO 00000KT 10SM BKN070 17/15 A3006 RMK AO1
KFRR 190555Z AUTO 00000KT 10SM BKN070 17/15 A3006 RMK AO1
KFRR 190535Z AUTO 18003KT 10SM BKN070 16/15 A3006 RMK AO1
KFRR 190515Z AUTO 20003KT 10SM SCT070 16/15 A3005 RMK AO1
KFRR 190455Z AUTO 19004KT 10SM CLR 16/15 A3005 RMK AO1
KFRR 190435Z AUTO 00000KT 10SM CLR 16/15 A3004 RMK AO1
KFRR 190415Z AUTO 00000KT 10SM CLR 16/15 A3004 RMK AO1
KFRR 190355Z AUTO 00000KT 10SM CLR 16/15 A3003 RMK AO1
KFRR 190335Z AUTO 00000KT 10SM CLR 16/15 A3003 RMK AO1
KFRR 190315Z AUTO 00000KT 10SM CLR 17/15 A3003 RMK AO1
KFRR 190255Z AUTO 00000KT 10SM CLR 18/15 A3003 RMK AO1
KFRR 190235Z AUTO 00000KT 10SM CLR 18/15 A3003 RMK AO1
KFRR 190215Z AUTO 20005KT 10SM CLR 18/15 A3002 RMK AO1
KFRR 190155Z AUTO 00000KT 10SM CLR 18/15 A3002 RMK AO1
KFRR 190135Z AUTO 00000KT 10SM SCT070 19/15 A3001 RMK AO1
KFRR 190115Z AUTO 00000KT 10SM CLR 21/14 A3000 RMK AO1
KFRR 190055Z AUTO 00000KT 10SM CLR 22/14 A3000 RMK AO1
KFRR 190035Z AUTO 00000KT 10SM CLR 22/15 A2999 RMK AO1
KFRR 190015Z AUTO 00000KT 10SM CLR 24/14 A2999 RMK AO1
KFRR 182355Z AUTO 00000KT 10SM CLR 25/13 A2999 RMK AO1
KFRR 182335Z AUTO 31003KT 10SM CLR 26/12 A2999 RMK AO1
KFRR 182315Z AUTO 33003KT 10SM CLR 26/12 A2999 RMK AO1
KFRR 182255Z AUTO 33003KT 10SM CLR 26/12 A2999 RMK AO1
KFRR 182235Z AUTO 30003KT 10SM CLR 26/12 A2998 RMK AO1
KFRR 182215Z AUTO 35005KT 10SM SCT070 27/12 A2998 RMK AO1
KFRR 182155Z AUTO 31004KT 10SM SCT070 27/12 A2998 RMK AO1
KFRR 182135Z AUTO 32005KT 10SM SCT070 26/12 A2999 RMK AO1
KFRR 182115Z AUTO 32005KT 10SM SCT065 27/13 A2999 RMK AO1
KFRR 182055Z AUTO 30004KT 10SM SCT065 26/14 A2999 RMK AO1
KFRR 182035Z AUTO 02004KT 10SM SCT065 27/13 A2999 RMK AO1
KFRR 182015Z AUTO 35005KT 10SM SCT065 26/13 A3000 RMK AO1
KFRR 181955Z AUTO 35004KT 10SM CLR 27/14 A3000 RMK AO1
KFRR 181935Z AUTO 30005KT 10SM CLR 27/13 A3000 RMK AO1
KFRR 181915Z AUTO 04003KT 10SM CLR 26/13 A3000 RMK AO1
KFRR 181855Z AUTO 35005KT 10SM SCT055 26/13 A3001 RMK AO1
KFRR 181835Z AUTO 34004KT 10SM BKN065 26/13 A3001 RMK AO1
KFRR 181815Z AUTO 34005KT 10SM BKN065 25/13 A3001 RMK AO1
KFRR 181755Z AUTO 29004KT 10SM SCT050 SCT065 26/15 A3001 RMK AO1
KFRR 181735Z AUTO 36006KT 10SM SCT050 26/15 A3001 RMK AO1
KFRR 181715Z AUTO 33006KT 10SM SCT050 26/14 A3002 RMK AO1
KFRR 181655Z AUTO 36008KT 310V030 10SM SCT050 25/14 A3001 RMK AO1
KFRR 181635Z AUTO 33007KT 10SM SCT050 25/13 A3002 RMK AO1
KFRR 181615Z AUTO 01005KT 10SM SCT050 25/14 A3002 RMK AO1
KFRR 181555Z AUTO 33004KT 10SM SCT047 25/13 A3002 RMK AO1
KFRR 181535Z AUTO 35006KT 10SM SCT045 SCT055 25/15 A3003 RMK AO1